Time;durP1;ratioP1;P1;durP2;ratioP2;P2;SDS_P1;SDS_P2;PMS_P1;PMS_P2;Temp;Humidity;BMP_temperature;BMP_pressure;BME280_temperature;BME280_humidity;BME280_pressure;Samples;Min_cycle;Max_cycle;Signal;HPM_P1;HPM_P2
2021/05/09 00:01:00;;;;;;;1.57;1.00;;;27.00;50.60;;;;;;4958609;29;20537;-87
2021/05/09 00:03:26;;;;;;;1.00;0.80;;;27.00;50.60;;;;;;4958731;29;20542;-87
2021/05/09 00:05:54;;;;;;;1.00;0.80;;;27.00;50.60;;;;;;4958363;29;20469;-87
2021/05/09 00:08:20;;;;;;;1.00;0.87;;;26.90;50.60;;;;;;4958219;29;20457;-87
2021/05/09 00:10:46;;;;;;;0.90;0.70;;;27.00;50.70;;;;;;4958212;29;20447;-87
2021/05/09 00:13:13;;;;;;;0.90;0.70;;;26.90;50.60;;;;;;4958050;29;20482;-87
2021/05/09 00:15:39;;;;;;;1.20;0.90;;;26.90;50.70;;;;;;4958184;29;20455;-87
2021/05/09 00:18:06;;;;;;;1.00;0.80;;;26.80;50.60;;;;;;4958271;29;20445;-87
2021/05/09 00:20:32;;;;;;;1.00;0.80;;;26.80;50.70;;;;;;4958220;29;20577;-87
2021/05/09 00:22:59;;;;;;;1.00;0.80;;;26.80;50.70;;;;;;4958147;29;20453;-86
2021/05/09 00:25:26;;;;;;;1.43;0.90;;;26.80;50.80;;;;;;4957615;29;20479;-87
2021/05/09 00:27:52;;;;;;;1.20;1.00;;;26.80;50.70;;;;;;4957886;29;20613;-86
2021/05/09 00:30:19;;;;;;;1.10;0.90;;;26.80;50.70;;;;;;4958140;29;20506;-86
2021/05/09 00:32:46;;;;;;;1.10;0.90;;;26.80;50.70;;;;;;4957827;29;20823;-86
2021/05/09 00:35:13;;;;;;;1.00;0.90;;;26.70;50.70;;;;;;4957996;29;20451;-88
2021/05/09 00:37:39;;;;;;;1.00;0.80;;;26.80;50.80;;;;;;4957131;28;20811;-87
2021/05/09 00:40:08;;;;;;;1.10;0.70;;;26.80;50.80;;;;;;4957752;29;20459;-87
2021/05/09 00:42:34;;;;;;;1.20;0.90;;;26.80;50.70;;;;;;4958217;29;20454;-87
2021/05/09 00:45:01;;;;;;;1.17;0.90;;;26.80;50.80;;;;;;4957448;29;20446;-87
2021/05/09 00:47:28;;;;;;;1.00;0.83;;;26.70;50.80;;;;;;4957892;29;20456;-87
2021/05/09 00:49:54;;;;;;;1.00;0.70;;;26.70;50.80;;;;;;4957546;29;20508;-87
2021/05/09 00:52:21;;;;;;;1.00;0.80;;;26.70;50.80;;;;;;4957660;29;20442;-87
2021/05/09 00:54:52;;;;;;;1.10;0.70;;;26.70;50.80;;;;;;4957331;29;20996;-87
2021/05/09 00:57:21;;;;;;;1.10;0.83;;;26.70;50.80;;;;;;4957361;29;20458;-88
2021/05/09 00:59:50;;;;;;;0.90;0.70;;;26.70;50.80;;;;;;4957825;29;20545;-88
2021/05/09 01:02:17;;;;;;;1.10;0.90;;;26.70;50.80;;;;;;4957641;29;20526;-88
2021/05/09 01:04:45;;;;;;;1.30;1.20;;;26.70;50.80;;;;;;4957437;29;20454;-87
2021/05/09 01:07:12;;;;;;;1.13;0.90;;;26.70;51.40;;;;;;4957463;29;20442;-87
2021/05/09 01:09:39;;;;;;;0.90;0.70;;;26.70;50.90;;;;;;4957665;29;20448;-87
2021/05/09 01:12:09;;;;;;;1.00;0.73;;;26.70;50.80;;;;;;4957627;29;20443;-88
2021/05/09 01:14:36;;;;;;;1.00;0.90;;;26.70;50.80;;;;;;4957089;29;20491;-87
2021/05/09 01:17:03;;;;;;;1.00;0.80;;;26.60;50.80;;;;;;4957564;29;20529;-88
2021/05/09 01:19:30;;;;;;;1.00;0.80;;;26.60;50.90;;;;;;4957339;29;20521;-88
2021/05/09 01:21:57;;;;;;;1.00;0.87;;;26.60;50.90;;;;;;4957183;29;20446;-88
2021/05/09 01:24:23;;;;;;;1.23;0.80;;;26.60;50.90;;;;;;4957504;29;20455;-88
2021/05/09 01:26:50;;;;;;;1.00;0.80;;;26.60;50.90;;;;;;4956989;29;20462;-88
2021/05/09 01:29:16;;;;;;;1.10;0.80;;;26.60;50.90;;;;;;4957185;29;20663;-88
2021/05/09 01:31:44;;;;;;;1.10;0.80;;;26.60;50.90;;;;;;4956917;29;20976;-88
2021/05/09 01:34:10;;;;;;;1.00;0.70;;;26.60;50.90;;;;;;4956690;29;20510;-88
2021/05/09 01:36:37;;;;;;;1.00;0.90;;;26.60;50.90;;;;;;4956560;29;20945;-88
2021/05/09 01:39:06;;;;;;;1.00;0.80;;;26.50;50.80;;;;;;4956548;29;21008;-88
2021/05/09 01:41:32;;;;;;;1.10;0.90;;;26.50;50.90;;;;;;4956814;29;20444;-88
2021/05/09 01:43:59;;;;;;;1.10;1.00;;;26.50;50.80;;;;;;4956504;29;20942;-87
2021/05/09 01:46:25;;;;;;;1.20;0.90;;;26.50;50.90;;;;;;4956782;29;20477;-88
2021/05/09 01:48:51;;;;;;;1.10;1.00;;;26.50;50.90;;;;;;4955625;28;20805;-88
2021/05/09 01:51:18;;;;;;;1.00;0.87;;;26.60;50.90;;;;;;4956506;29;20447;-88
2021/05/09 01:53:45;;;;;;;1.10;0.83;;;26.50;50.90;;;;;;4956306;29;20491;-88
2021/05/09 01:56:14;;;;;;;1.03;0.80;;;26.50;50.90;;;;;;4956576;29;20518;-88
2021/05/09 01:58:40;;;;;;;0.90;0.70;;;26.50;50.90;;;;;;4956469;29;20445;-88
2021/05/09 02:01:06;;;;;;;1.00;0.90;;;26.50;50.90;;;;;;4956060;29;20442;-88
2021/05/09 02:03:32;;;;;;;1.20;0.90;;;26.50;50.90;;;;;;4956091;29;20542;-88
2021/05/09 02:05:59;;;;;;;1.00;0.80;;;26.50;50.90;;;;;;4956618;29;20780;-88
2021/05/09 02:08:25;;;;;;;1.10;0.93;;;26.50;50.90;;;;;;4957036;29;20439;-88
2021/05/09 02:10:51;;;;;;;1.13;1.00;;;26.50;50.90;;;;;;4956786;29;20455;-88
2021/05/09 02:13:19;;;;;;;1.00;0.80;;;26.50;51.00;;;;;;4956795;29;20483;-88
2021/05/09 02:15:45;;;;;;;1.00;0.80;;;26.40;50.90;;;;;;4956942;29;20554;-87
2021/05/09 02:18:11;;;;;;;1.00;0.80;;;26.50;50.90;;;;;;4957522;29;20458;-88
2021/05/09 02:20:38;;;;;;;1.10;0.90;;;26.40;50.90;;;;;;4956941;29;20589;-88
2021/05/09 02:23:04;;;;;;;1.10;0.90;;;26.40;50.90;;;;;;4956966;29;20546;-88
2021/05/09 02:25:30;;;;;;;0.93;0.70;;;26.40;50.90;;;;;;4957551;29;21056;-88
2021/05/09 02:27:57;;;;;;;1.00;0.90;;;26.40;51.50;;;;;;4958905;29;20535;-88
2021/05/09 02:30:24;;;;;;;1.00;0.80;;;26.40;50.90;;;;;;4955989;29;20456;-88
2021/05/09 02:32:50;;;;;;;1.00;0.80;;;26.40;50.90;;;;;;4955750;29;20445;-88
2021/05/09 02:35:17;;;;;;;1.93;0.70;;;26.40;50.90;;;;;;4955683;29;20938;-88
2021/05/09 02:37:43;;;;;;;1.00;0.80;;;26.40;50.90;;;;;;4955908;29;20950;-88
2021/05/09 02:40:11;;;;;;;1.00;0.80;;;26.40;50.90;;;;;;4955806;29;20448;-88
2021/05/09 02:42:37;;;;;;;1.07;0.90;;;26.40;50.90;;;;;;4955489;29;20443;-88
2021/05/09 02:45:05;;;;;;;0.90;0.73;;;26.40;50.90;;;;;;4955711;29;20438;-88
2021/05/09 02:47:32;;;;;;;1.00;0.90;;;26.40;50.90;;;;;;4955771;29;20452;-88
2021/05/09 02:50:00;;;;;;;0.90;0.70;;;26.40;50.90;;;;;;4955758;29;20559;-88
2021/05/09 02:52:26;;;;;;;1.10;0.80;;;26.40;50.90;;;;;;4955695;29;20438;-88
2021/05/09 02:54:53;;;;;;;1.00;0.70;;;26.40;50.90;;;;;;4955492;29;20497;-88
2021/05/09 02:57:20;;;;;;;0.90;0.77;;;26.40;50.90;;;;;;4955495;29;20466;-88
2021/05/09 02:59:46;;;;;;;1.03;0.80;;;26.40;50.90;;;;;;4955343;29;20443;-88
2021/05/09 03:02:12;;;;;;;1.03;0.83;;;26.40;50.90;;;;;;4955398;29;20545;-88
2021/05/09 03:04:40;;;;;;;1.00;0.90;;;26.40;50.90;;;;;;4955549;29;20814;-88
2021/05/09 03:07:06;;;;;;;0.90;0.77;;;26.40;50.90;;;;;;4955954;29;20446;-88
2021/05/09 03:09:33;;;;;;;1.00;0.87;;;26.40;50.90;;;;;;4955103;29;20446;-88
2021/05/09 03:12:00;;;;;;;1.43;0.87;;;26.40;50.90;;;;;;4955718;29;20451;-88
2021/05/09 03:14:26;;;;;;;1.00;0.80;;;26.40;50.80;;;;;;4955291;29;20526;-88
2021/05/09 03:16:53;;;;;;;0.97;0.80;;;26.40;51.50;;;;;;4955662;29;20506;-88
2021/05/09 03:19:19;;;;;;;0.97;0.80;;;26.40;50.90;;;;;;4955803;29;20447;-88
2021/05/09 03:21:46;;;;;;;1.10;0.90;;;26.40;50.90;;;;;;4955697;29;20455;-86
2021/05/09 03:24:13;;;;;;;1.00;0.77;;;26.40;50.90;;;;;;4958507;29;20450;-88
2021/05/09 03:26:40;;;;;;;0.90;0.80;;;26.40;50.90;;;;;;4958313;29;20477;-87
2021/05/09 03:29:07;;;;;;;1.30;0.90;;;26.40;50.90;;;;;;4958249;29;20502;-87
2021/05/09 03:31:34;;;;;;;1.10;0.90;;;26.40;50.90;;;;;;4956341;29;20447;-88
2021/05/09 03:34:00;;;;;;;0.90;0.70;;;26.40;51.50;;;;;;4955996;29;20548;-88
2021/05/09 03:36:27;;;;;;;1.10;0.80;;;26.40;51.00;;;;;;4955774;29;20456;-88
2021/05/09 03:38:54;;;;;;;1.50;1.03;;;26.40;51.00;;;;;;4955478;29;20979;-88
2021/05/09 03:41:22;;;;;;;1.00;0.90;;;26.40;51.00;;;;;;4955704;29;20460;-88
2021/05/09 03:43:48;;;;;;;1.00;0.83;;;26.40;50.90;;;;;;4955172;29;20933;-88
2021/05/09 03:46:15;;;;;;;1.00;0.80;;;26.40;50.90;;;;;;4955046;29;20941;-88
2021/05/09 03:48:41;;;;;;;1.00;0.80;;;26.40;50.90;;;;;;4955334;29;20929;-88
2021/05/09 03:51:07;;;;;;;1.00;0.80;;;26.40;51.50;;;;;;4955126;29;20846;-88
2021/05/09 03:53:34;;;;;;;1.00;0.80;;;26.40;51.00;;;;;;4954777;29;20516;-88
2021/05/09 03:56:01;;;;;;;1.57;0.80;;;26.40;51.00;;;;;;4954883;29;20521;-88
2021/05/09 03:58:27;;;;;;;1.30;0.90;;;26.40;51.00;;;;;;4955067;29;20446;-88
2021/05/09 04:00:54;;;;;;;0.90;0.77;;;26.40;51.00;;;;;;4955043;29;20528;-88
2021/05/09 04:03:22;;;;;;;1.20;1.00;;;26.40;51.00;;;;;;4954994;29;20462;-88
2021/05/09 04:05:51;;;;;;;1.03;0.80;;;26.40;51.00;;;;;;4955091;29;20450;-88
2021/05/09 04:08:17;;;;;;;1.40;1.00;;;26.40;51.00;;;;;;4954986;29;20454;-88
2021/05/09 04:10:44;;;;;;;1.00;0.80;;;26.40;51.00;;;;;;4954606;28;20528;-88
2021/05/09 04:13:11;;;;;;;1.50;0.90;;;26.40;51.00;;;;;;4957987;29;20442;-88
2021/05/09 04:15:37;;;;;;;1.00;0.80;;;26.40;51.00;;;;;;4958534;29;20497;-88
2021/05/09 04:18:04;;;;;;;1.00;0.80;;;26.50;51.00;;;;;;4958666;29;20438;-88
2021/05/09 04:20:31;;;;;;;1.00;0.80;;;26.40;51.00;;;;;;4958383;29;20607;-89
2021/05/09 04:23:07;;;;;;;1.00;0.87;;;26.40;51.00;;;;;;4958019;29;20452;-88
2021/05/09 04:25:34;;;;;;;0.90;0.70;;;26.50;51.10;;;;;;4957699;29;21014;-88
2021/05/09 04:28:00;;;;;;;0.97;0.73;;;26.40;51.00;;;;;;4957978;29;20794;-88
2021/05/09 04:30:28;;;;;;;1.00;0.80;;;26.60;51.10;;;;;;4957882;29;20439;-88
2021/05/09 04:32:58;;;;;;;1.10;1.00;;;26.50;51.10;;;;;;4957982;29;20538;-88
2021/05/09 04:35:25;;;;;;;0.93;0.70;;;26.60;51.10;;;;;;4958207;29;20494;-88
2021/05/09 04:37:51;;;;;;;1.40;0.70;;;26.50;51.20;;;;;;4958213;29;20443;-88
2021/05/09 04:40:18;;;;;;;1.00;0.80;;;26.50;51.10;;;;;;4958378;29;20533;-88
2021/05/09 04:42:45;;;;;;;1.00;0.80;;;26.40;51.00;;;;;;4957869;29;20446;-89
2021/05/09 04:45:12;;;;;;;1.07;0.80;;;26.50;51.10;;;;;;4958002;29;20445;-88
2021/05/09 04:47:39;;;;;;;1.60;0.80;;;26.40;51.00;;;;;;4957834;29;20775;-88
2021/05/09 04:50:07;;;;;;;1.00;0.73;;;26.40;51.00;;;;;;4957549;29;20938;-88
2021/05/09 04:52:33;;;;;;;1.10;0.90;;;26.50;51.10;;;;;;4957816;29;20468;-88
2021/05/09 04:54:59;;;;;;;1.00;0.80;;;26.40;51.10;;;;;;4957576;29;20930;-86
2021/05/09 04:57:26;;;;;;;1.00;0.80;;;26.40;51.10;;;;;;4957734;29;20442;-88
2021/05/09 04:59:52;;;;;;;1.00;0.70;;;26.40;51.10;;;;;;4957812;29;20445;-88
2021/05/09 05:02:19;;;;;;;1.50;0.90;;;26.40;51.10;;;;;;4957392;29;20635;-88
2021/05/09 05:04:46;;;;;;;1.00;0.80;;;26.40;51.10;;;;;;4957661;29;20473;-88
2021/05/09 05:07:12;;;;;;;1.47;0.80;;;26.40;51.10;;;;;;4957403;29;20505;-88
2021/05/09 05:09:40;;;;;;;0.93;0.80;;;26.40;51.20;;;;;;4957272;29;20449;-88
2021/05/09 05:12:08;;;;;;;1.00;0.73;;;26.40;51.10;;;;;;4957559;29;20563;-89
2021/05/09 05:14:35;;;;;;;0.97;0.73;;;26.40;51.20;;;;;;4957274;29;20923;-88
2021/05/09 05:17:01;;;;;;;1.03;0.77;;;26.40;51.10;;;;;;4957426;29;20500;-88
2021/05/09 05:19:27;;;;;;;1.00;0.80;;;26.40;51.20;;;;;;4957406;29;20451;-88
2021/05/09 05:21:55;;;;;;;0.90;0.70;;;26.40;51.20;;;;;;4957380;29;20511;-88
2021/05/09 05:24:21;;;;;;;1.00;0.70;;;26.40;51.20;;;;;;4956806;28;20859;-88
2021/05/09 05:26:47;;;;;;;1.00;0.70;;;26.40;51.10;;;;;;4956647;29;20482;-89
2021/05/09 05:29:14;;;;;;;0.90;0.70;;;26.40;51.80;;;;;;4957258;29;20453;-88
2021/05/09 05:31:41;;;;;;;1.00;0.80;;;26.40;51.20;;;;;;4956937;29;20945;-88
2021/05/09 05:34:07;;;;;;;1.00;0.90;;;26.40;51.20;;;;;;4956957;29;20500;-88
2021/05/09 05:36:34;;;;;;;1.10;0.80;;;26.40;51.20;;;;;;4956731;29;20460;-87
2021/05/09 05:39:01;;;;;;;1.00;0.80;;;26.40;51.20;;;;;;4957047;29;20450;-88
2021/05/09 05:41:27;;;;;;;0.90;0.70;;;26.40;51.20;;;;;;4957073;29;20441;-88
2021/05/09 05:43:54;;;;;;;0.90;0.70;;;26.40;51.80;;;;;;4956616;29;20964;-88
2021/05/09 05:46:20;;;;;;;1.00;0.77;;;26.40;51.70;;;;;;4957060;29;20533;-86
2021/05/09 05:48:46;;;;;;;1.00;0.87;;;26.40;51.20;;;;;;4957022;29;20545;-88
2021/05/09 05:51:13;;;;;;;1.00;0.80;;;26.40;51.20;;;;;;4956760;29;20989;-88
2021/05/09 05:53:39;;;;;;;1.30;0.80;;;26.40;51.20;;;;;;4956518;29;20555;-88
2021/05/09 05:56:06;;;;;;;0.90;0.70;;;26.50;51.20;;;;;;4956705;29;20479;-88
2021/05/09 05:58:33;;;;;;;0.90;0.70;;;26.50;51.20;;;;;;4956769;29;20443;-88
2021/05/09 06:00:59;;;;;;;0.90;0.70;;;26.50;51.20;;;;;;4956455;29;20881;-88
2021/05/09 06:03:26;;;;;;;0.90;0.70;;;26.50;51.20;;;;;;4956281;29;20447;-86
2021/05/09 06:05:53;;;;;;;0.90;0.70;;;26.40;51.20;;;;;;4956564;29;20457;-89
2021/05/09 06:08:19;;;;;;;0.90;0.70;;;26.50;51.20;;;;;;4956734;29;20454;-88
2021/05/09 06:10:46;;;;;;;0.90;0.77;;;26.50;51.20;;;;;;4956630;29;20457;-88
2021/05/09 06:13:14;;;;;;;1.00;0.77;;;26.50;51.20;;;;;;4956039;29;20961;-89
2021/05/09 06:15:40;;;;;;;0.97;0.80;;;26.60;51.10;;;;;;4956217;29;20529;-88
2021/05/09 06:18:07;;;;;;;1.13;1.00;;;26.60;51.20;;;;;;4956126;29;20558;-88
2021/05/09 06:20:33;;;;;;;1.00;0.73;;;26.60;51.10;;;;;;4956493;29;20505;-88
2021/05/09 06:23:02;;;;;;;1.00;0.87;;;26.60;51.10;;;;;;4955794;29;20461;-86
2021/05/09 06:25:29;;;;;;;1.10;0.87;;;26.60;51.10;;;;;;4955930;29;20895;-88
2021/05/09 06:27:55;;;;;;;1.00;0.80;;;26.60;51.10;;;;;;4956028;29;20450;-88
2021/05/09 06:30:23;;;;;;;1.00;0.80;;;26.60;51.10;;;;;;4956762;29;20446;-88
2021/05/09 06:32:49;;;;;;;0.90;0.70;;;26.60;51.20;;;;;;4956163;29;20878;-88
2021/05/09 06:35:16;;;;;;;1.00;0.80;;;26.60;51.10;;;;;;4955261;28;20504;-88
2021/05/09 06:37:42;;;;;;;1.07;0.73;;;26.50;51.70;;;;;;4955938;29;20545;-88
2021/05/09 06:40:09;;;;;;;1.20;0.90;;;26.60;51.20;;;;;;4955687;29;20458;-86
2021/05/09 06:42:36;;;;;;;0.97;0.80;;;26.50;51.20;;;;;;4955703;29;20446;-86
2021/05/09 06:45:06;;;;;;;0.90;0.70;;;26.50;51.20;;;;;;4956864;29;20824;-86
2021/05/09 06:47:34;;;;;;;0.90;0.70;;;26.50;51.20;;;;;;4956354;29;20450;-87
2021/05/09 06:50:00;;;;;;;1.00;0.80;;;26.50;51.10;;;;;;4956040;29;20473;-88
2021/05/09 06:52:27;;;;;;;1.07;0.70;;;26.50;51.20;;;;;;4955748;29;20449;-85
2021/05/09 06:54:54;;;;;;;0.97;0.77;;;26.50;51.10;;;;;;4955691;29;20964;-88
2021/05/09 06:57:20;;;;;;;0.90;0.70;;;26.50;51.20;;;;;;4955777;29;20454;-88
2021/05/09 06:59:47;;;;;;;0.93;0.80;;;26.50;51.10;;;;;;4956262;29;20454;-88
2021/05/09 07:02:13;;;;;;;0.90;0.73;;;26.50;51.20;;;;;;4955584;29;20533;-88
2021/05/09 07:04:40;;;;;;;1.00;0.70;;;26.50;51.10;;;;;;4955313;29;20493;-88
2021/05/09 07:07:07;;;;;;;0.90;0.70;;;26.50;51.80;;;;;;4955256;29;20450;-86
2021/05/09 07:09:33;;;;;;;0.90;0.70;;;26.40;51.20;;;;;;4955599;29;20461;-89
2021/05/09 07:11:59;;;;;;;1.03;0.80;;;26.40;51.20;;;;;;4955503;29;20555;-87
2021/05/09 07:14:26;;;;;;;1.00;0.77;;;26.40;51.10;;;;;;4947832;29;20487;-84
2021/05/09 07:16:52;;;;;;;0.90;0.80;;;26.50;51.60;;;;;;4936471;29;20538;-86
2021/05/09 07:19:19;;;;;;;1.00;0.73;;;26.50;51.20;;;;;;4936168;29;20947;-85
2021/05/09 07:21:50;;;;;;;1.73;1.00;;;26.50;51.00;;;;;;4941203;29;20443;-85
2021/05/09 07:24:16;;;;;;;1.30;0.70;;;26.50;51.00;;;;;;4946972;29;21095;-86
2021/05/09 07:26:43;;;;;;;2.10;0.77;;;26.40;51.00;;;;;;4952152;29;20477;-85
2021/05/09 07:29:09;;;;;;;0.97;0.73;;;26.40;51.10;;;;;;4955163;29;20454;-85
2021/05/09 07:31:40;;;;;;;1.00;0.70;;;26.60;51.20;;;;;;4955193;29;20545;-86
2021/05/09 07:34:06;;;;;;;1.83;0.90;;;26.70;51.40;;;;;;4952616;29;20490;-85
2021/05/09 07:36:33;;;;;;;1.73;1.00;;;26.50;51.40;;;;;;4940017;29;20442;-86
2021/05/09 07:39:00;;;;;;;1.10;1.00;;;26.50;51.50;;;;;;4936406;29;20457;-86
2021/05/09 07:41:26;;;;;;;1.27;1.00;;;26.60;51.60;;;;;;4936322;29;20458;-87
2021/05/09 07:43:53;;;;;;;2.37;0.87;;;26.60;51.60;;;;;;4936179;29;20534;-86
2021/05/09 07:46:19;;;;;;;3.13;1.23;;;26.70;51.90;;;;;;4936549;29;20459;-87
2021/05/09 07:48:47;;;;;;;1.17;1.03;;;26.60;51.70;;;;;;4940036;29;20994;-86
2021/05/09 07:51:13;;;;;;;2.87;1.30;;;26.70;51.80;;;;;;4939669;29;20453;-87
2021/05/09 07:53:40;;;;;;;2.40;1.23;;;26.70;51.60;;;;;;4939597;29;20491;-86
2021/05/09 07:56:07;;;;;;;1.57;1.00;;;26.70;51.50;;;;;;4939440;29;21033;-87
2021/05/09 07:58:33;;;;;;;3.00;1.23;;;26.70;51.50;;;;;;4939715;29;20452;-86
2021/05/09 08:01:03;;;;;;;1.60;1.10;;;26.70;51.60;;;;;;4939725;29;20796;-86
2021/05/09 08:03:29;;;;;;;1.20;1.10;;;26.70;51.60;;;;;;4939439;29;20506;-86
2021/05/09 08:05:55;;;;;;;1.60;1.00;;;26.70;51.70;;;;;;4941424;29;20546;-86
2021/05/09 08:08:26;;;;;;;1.40;1.20;;;26.60;51.80;;;;;;4943070;29;20454;-83
2021/05/09 08:10:52;;;;;;;1.10;1.00;;;26.60;52.00;;;;;;4953080;29;20537;-86
2021/05/09 08:13:20;;;;;;;4.40;1.10;;;26.60;52.30;;;;;;4961036;29;20449;-86
2021/05/09 08:15:46;;;;;;;1.20;0.93;;;26.60;52.30;;;;;;4960832;29;20509;-86
2021/05/09 08:18:12;;;;;;;1.30;1.20;;;26.60;52.50;;;;;;4959215;29;20449;-86
2021/05/09 08:20:39;;;;;;;1.80;1.00;;;26.60;52.40;;;;;;4958941;29;20521;-86
2021/05/09 08:23:05;;;;;;;1.83;1.20;;;26.70;52.40;;;;;;4958641;29;20490;-86
2021/05/09 08:25:32;;;;;;;1.50;1.23;;;26.90;52.40;;;;;;4958301;29;20898;-87
2021/05/09 08:27:59;;;;;;;1.63;1.00;;;26.80;52.30;;;;;;4958526;29;20470;-86
2021/05/09 08:30:27;;;;;;;1.40;1.20;;;26.80;52.30;;;;;;4958209;29;20537;-86
2021/05/09 08:32:53;;;;;;;5.50;2.20;;;26.80;52.20;;;;;;4958162;29;20448;-86
2021/05/09 08:35:20;;;;;;;2.30;1.00;;;26.90;52.20;;;;;;4958605;29;20841;-86
2021/05/09 08:37:47;;;;;;;1.50;1.00;;;26.90;52.30;;;;;;4958210;29;20436;-87
2021/05/09 08:40:15;;;;;;;1.77;1.10;;;26.90;52.30;;;;;;4958324;29;21133;-86
2021/05/09 08:42:42;;;;;;;1.40;1.00;;;26.90;52.40;;;;;;4952245;29;20495;-85
2021/05/09 08:45:10;;;;;;;1.10;0.97;;;26.90;52.40;;;;;;4938567;29;20798;-87
2021/05/09 08:47:41;;;;;;;1.73;1.10;;;26.90;52.50;;;;;;4938607;29;20470;-87
2021/05/09 08:50:09;;;;;;;1.33;1.00;;;27.00;52.50;;;;;;4939179;29;20962;-85
2021/05/09 08:52:36;;;;;;;1.10;1.00;;;27.10;52.30;;;;;;4942748;29;20459;-85
2021/05/09 08:55:04;;;;;;;3.00;1.17;;;27.10;52.20;;;;;;4944808;29;20499;-87
2021/05/09 08:57:31;;;;;;;1.47;0.90;;;27.10;52.20;;;;;;4945429;28;20452;-85
2021/05/09 08:59:57;;;;;;;1.30;1.20;;;27.10;52.20;;;;;;4940436;29;20444;-87
2021/05/09 09:02:23;;;;;;;1.70;1.20;;;27.10;52.40;;;;;;4947827;29;21313;-86
2021/05/09 09:04:53;;;;;;;1.30;0.87;;;27.10;52.40;;;;;;4954282;29;20448;-87
2021/05/09 09:07:20;;;;;;;1.60;1.07;;;27.10;52.40;;;;;;4943039;29;20816;-87
2021/05/09 09:09:47;;;;;;;2.60;1.03;;;27.10;52.40;;;;;;4943910;29;20438;-87
2021/05/09 09:12:15;;;;;;;1.17;1.00;;;27.10;52.40;;;;;;4947070;29;20443;-86
2021/05/09 09:14:55;;;;;;;1.30;1.10;;;27.20;52.30;;;;;;4945326;29;20851;-87
2021/05/09 09:17:23;;;;;;;1.10;0.90;;;27.20;52.80;;;;;;4946629;29;20454;-84
2021/05/09 09:20:12;;;;;;;1.37;1.27;;;27.20;52.30;;;;;;4942499;29;20952;-87
2021/05/09 09:22:55;;;;;;;1.30;1.10;;;27.20;52.30;;;;;;4945264;29;20452;-85
2021/05/09 09:25:24;;;;;;;1.80;0.80;;;27.20;52.40;;;;;;4944800;29;21064;-88
2021/05/09 09:27:51;;;;;;;1.20;1.10;;;27.10;52.50;;;;;;4945687;29;20448;-87
2021/05/09 09:30:19;;;;;;;1.87;1.20;;;27.10;52.40;;;;;;4949073;29;20443;-87
2021/05/09 09:33:10;;;;;;;1.20;1.10;;;27.10;52.50;;;;;;4946308;29;20447;-87
2021/05/09 09:35:38;;;;;;;1.40;1.10;;;27.10;52.50;;;;;;4944520;29;20487;-87
2021/05/09 09:38:24;;;;;;;1.60;1.13;;;27.20;52.50;;;;;;4944846;29;20450;-87
2021/05/09 09:41:22;;;;;;;2.20;1.03;;;27.30;52.50;;;;;;4948017;29;20443;-87
2021/05/09 09:44:03;;;;;;;1.20;0.80;;;27.30;52.50;;;;;;4877898;29;20957;-87
2021/05/09 09:46:31;;;;;;;1.47;1.27;;;27.50;52.50;;;;;;4937510;29;20439;-87
2021/05/09 09:48:58;;;;;;;1.00;0.80;;;27.30;52.50;;;;;;4949801;29;20511;-87
2021/05/09 09:51:26;;;;;;;1.87;1.00;;;27.40;52.40;;;;;;4940235;29;20953;-87
2021/05/09 09:53:53;;;;;;;1.10;0.80;;;27.40;52.50;;;;;;4944607;29;21049;-87
2021/05/09 09:56:21;;;;;;;1.10;1.00;;;27.40;52.50;;;;;;4946429;29;20534;-86
2021/05/09 09:58:49;;;;;;;1.30;1.00;;;27.40;52.40;;;;;;4956051;29;20965;-86
2021/05/09 10:01:19;;;;;;;1.83;1.13;;;27.70;53.00;;;;;;4956588;29;20441;-86
2021/05/09 10:03:46;;;;;;;1.60;1.23;;;27.50;52.40;;;;;;4956055;29;20456;-88
2021/05/09 10:06:13;;;;;;;1.80;1.40;;;27.40;52.50;;;;;;4957290;29;20997;-87
2021/05/09 10:08:40;;;;;;;1.50;0.93;;;27.40;52.60;;;;;;4956443;28;20942;-88
2021/05/09 10:11:08;;;;;;;2.30;1.17;;;27.40;52.70;;;;;;4956817;29;20450;-87
2021/05/09 10:13:34;;;;;;;1.50;1.10;;;27.40;52.70;;;;;;4957382;29;20540;-88
2021/05/09 10:16:01;;;;;;;1.50;1.20;;;27.60;52.90;;;;;;4958639;29;20455;-89
2021/05/09 10:18:29;;;;;;;1.60;0.97;;;27.60;53.00;;;;;;4958013;29;20458;-89
2021/05/09 10:20:56;;;;;;;1.90;1.27;;;27.70;52.90;;;;;;4957434;29;20845;-87
2021/05/09 10:23:23;;;;;;;3.17;1.10;;;27.60;53.50;;;;;;4957136;29;20448;-88
2021/05/09 10:25:51;;;;;;;1.83;1.00;;;27.60;52.90;;;;;;4957763;29;20573;-88
2021/05/09 10:28:20;;;;;;;2.97;1.17;;;27.70;52.90;;;;;;4957624;29;20595;-87
2021/05/09 10:30:52;;;;;;;1.63;1.20;;;27.60;52.90;;;;;;4958570;29;20499;-88
2021/05/09 10:33:46;;;;;;;1.67;1.10;;;27.80;53.30;;;;;;4958159;29;20441;-88
2021/05/09 10:36:41;;;;;;;2.47;1.40;;;27.60;53.10;;;;;;4959085;29;20440;-88
2021/05/09 10:39:15;;;;;;;1.33;1.00;;;27.60;52.90;;;;;;4952259;29;20868;-88
2021/05/09 10:42:17;;;;;;;2.13;1.60;;;27.60;53.10;;;;;;4961241;29;20498;-89
2021/05/09 10:44:47;;;;;;;1.77;1.17;;;27.60;53.20;;;;;;4959035;29;20465;-88
2021/05/09 10:47:16;;;;;;;1.93;1.20;;;27.70;53.70;;;;;;4957520;29;20452;-86
2021/05/09 10:50:26;;;;;;;1.30;1.00;;;27.50;53.00;;;;;;4955836;29;20459;-88
2021/05/09 10:52:55;;;;;;;1.67;1.00;;;27.50;52.90;;;;;;4937333;29;20454;-88
2021/05/09 10:55:54;;;;;;;1.50;1.00;;;27.70;53.10;;;;;;4956096;29;20590;-88
2021/05/09 10:58:43;;;;;;;1.97;1.20;;;27.70;53.00;;;;;;4956451;29;20452;-88
2021/05/09 11:01:18;;;;;;;1.37;1.27;;;27.50;52.90;;;;;;4956240;29;20433;-88
2021/05/09 11:03:52;;;;;;;1.50;1.20;;;27.50;53.00;;;;;;4956025;29;20439;-85
2021/05/09 11:06:20;;;;;;;2.17;1.00;;;27.50;53.10;;;;;;4957123;29;20523;-88
2021/05/09 11:08:58;;;;;;;2.80;1.00;;;27.50;53.10;;;;;;4956174;29;20444;-88
2021/05/09 11:12:03;;;;;;;1.77;1.30;;;27.70;53.10;;;;;;4955926;29;20978;-88
2021/05/09 11:14:39;;;;;;;1.40;1.10;;;27.50;53.00;;;;;;4901142;29;20579;-88
2021/05/09 11:17:11;;;;;;;1.33;1.10;;;27.50;53.10;;;;;;4955632;29;20538;-88
2021/05/09 11:19:47;;;;;;;2.37;1.10;;;27.50;53.20;;;;;;4956067;29;20451;-88
2021/05/09 11:22:17;;;;;;;2.07;1.43;;;27.50;53.20;;;;;;4959335;28;20524;-88
2021/05/09 11:24:44;;;;;;;2.50;1.10;;;27.50;53.20;;;;;;4959195;29;21020;-88
2021/05/09 11:27:12;;;;;;;1.20;1.10;;;27.50;53.10;;;;;;4959462;29;20446;-88
2021/05/09 11:29:41;;;;;;;1.10;1.00;;;27.50;53.10;;;;;;4959496;29;20534;-88
2021/05/09 11:32:10;;;;;;;1.60;1.00;;;27.50;53.20;;;;;;4959838;29;20502;-88
2021/05/09 11:34:37;;;;;;;1.70;1.03;;;27.50;53.20;;;;;;4959348;29;20476;-88
2021/05/09 11:37:04;;;;;;;1.33;1.03;;;27.60;53.20;;;;;;4959548;29;20462;-88
2021/05/09 11:39:38;;;;;;;1.70;1.10;;;27.50;53.20;;;;;;4959942;29;20985;-87
2021/05/09 11:42:08;;;;;;;1.30;1.10;;;27.60;53.10;;;;;;4959058;29;20501;-88
2021/05/09 11:44:37;;;;;;;1.20;1.07;;;27.60;53.20;;;;;;4959253;29;20451;-88
2021/05/09 11:47:06;;;;;;;1.13;1.00;;;27.70;53.20;;;;;;4959438;29;20442;-88
2021/05/09 11:49:34;;;;;;;1.23;0.90;;;27.50;53.30;;;;;;4959391;29;20785;-88
2021/05/09 11:52:02;;;;;;;1.40;1.20;;;27.50;53.20;;;;;;4959187;29;20450;-88
2021/05/09 11:54:30;;;;;;;1.30;1.20;;;27.60;53.30;;;;;;4959402;29;21019;-87
2021/05/09 11:56:58;;;;;;;1.20;1.00;;;27.50;53.30;;;;;;4961862;29;20447;-87
2021/05/09 11:59:29;;;;;;;1.43;1.10;;;27.50;53.30;;;;;;4961291;29;20539;-88
2021/05/09 12:01:55;;;;;;;1.30;1.20;;;27.50;53.30;;;;;;4958478;29;20448;-88
2021/05/09 12:04:28;;;;;;;3.20;1.53;;;27.50;53.30;;;;;;4958669;29;20460;-88
2021/05/09 12:06:55;;;;;;;1.30;0.97;;;27.50;53.30;;;;;;4958949;29;20463;-88
2021/05/09 12:09:22;;;;;;;1.10;1.00;;;27.60;53.30;;;;;;4958777;29;20462;-88
2021/05/09 12:11:48;;;;;;;2.37;1.37;;;27.60;53.30;;;;;;4958357;29;20455;-88
2021/05/09 12:14:15;;;;;;;1.30;1.20;;;27.60;53.30;;;;;;4958468;29;20486;-88
2021/05/09 12:16:41;;;;;;;1.30;1.20;;;27.70;53.60;;;;;;4958751;29;20455;-88
2021/05/09 12:19:08;;;;;;;1.50;0.90;;;27.80;53.40;;;;;;4958225;29;20454;-87
2021/05/09 12:21:35;;;;;;;1.70;1.10;;;27.60;53.40;;;;;;4958346;29;20435;-88
2021/05/09 12:24:03;;;;;;;1.10;1.00;;;27.60;53.40;;;;;;4958393;29;20464;-88
2021/05/09 12:26:29;;;;;;;1.10;1.00;;;27.70;53.30;;;;;;4958099;29;20514;-88
2021/05/09 12:29:14;;;;;;;1.10;0.90;;;27.80;53.30;;;;;;4958389;29;20484;-88
2021/05/09 12:31:40;;;;;;;1.10;0.90;;;27.80;53.30;;;;;;4957871;28;20452;-88
2021/05/09 12:34:07;;;;;;;2.17;0.90;;;27.70;53.80;;;;;;4957760;29;20444;-88
2021/05/09 12:36:35;;;;;;;1.53;1.30;;;27.80;53.30;;;;;;4958281;29;20444;-88
2021/05/09 12:39:03;;;;;;;1.40;1.03;;;27.80;53.30;;;;;;4958500;29;20451;-88
2021/05/09 12:41:30;;;;;;;1.37;1.03;;;27.80;53.30;;;;;;4957991;29;20456;-88
2021/05/09 12:43:57;;;;;;;1.20;1.07;;;27.80;53.80;;;;;;4958350;29;20458;-87
2021/05/09 12:46:38;;;;;;;1.40;1.10;;;27.80;53.30;;;;;;4959072;29;20503;-88
2021/05/09 12:49:09;;;;;;;1.43;1.33;;;27.80;53.20;;;;;;4939318;29;20908;-88
2021/05/09 12:51:47;;;;;;;1.27;1.10;;;27.80;53.50;;;;;;4939084;29;20862;-88
2021/05/09 12:54:33;;;;;;;1.30;0.90;;;27.70;53.60;;;;;;4940827;29;20488;-86